Nearby METAR Reports

 

KMTN - Baltimore/Martin, Maryland, USA
Distance from station: SSE 8mi, 13km
Updated: Sun, 21-Sep-2014 5:30am EDT
Mist, Overcast
Mist, Overcast
 Wind from N
Wind: N 3 mph , 6 km/h
Temperature: 63°F , 17°C
Dew Point: 63°F , 17°C
Humidity: 100%
Barometer: 29.91 inHg , 1012.9 hPa
Summary: Mist
Clouds: Overcast
Visibility: 5 miles , 8 km
Cloud details: Partly cloudy 100 ft
Overcast 600 ft
2014/09/21 09:30 KMTN 210930Z AUTO 35003KT 5SM BR SCT001 OVC006 17/17 A2991 RMK AO2
KDMH - Baltimore/Dwntwn, Maryland, USA
Distance from station: SW 12mi, 19km
Updated: Sun, 21-Sep-2014 5:54am EDT

 
Temperature: 64°F , 18°C
Dew Point: 63°F , 17°C
Humidity: 94%
Barometer: 29.90 inHg , 1012.5 hPa
2014/09/21 09:54 KDMH 210954Z AUTO 18/17 A2990 RMK AO1 SLP125 T01830172
 
KBWI - Balto/Wash Intl, Maryland, USA
Distance from station: SSW 20mi, 33km
Updated: Sun, 21-Sep-2014 5:54am EDT
Mist, Mostly cloudy
Mist, Mostly cloudy
 Wind from calm
Wind: Calm
Temperature: 57°F , 14°C
Dew Point: 55°F , 13°C
Humidity: 94%
Barometer: 29.90 inHg , 1012.5 hPa
Summary: Mist
Clouds: Mostly cloudy
Visibility: 5 miles , 8 km
Cloud details: Partly cloudy 100 ft
Mostly cloudy 300 ft
2014/09/21 09:54 KBWI 210954Z 00000KT 5SM BR SCT001 BKN003 14/13 A2990 RMK AO2 SLP124 T01440133
KDMW - Carroll Cnty, Maryland, USA
Distance from station: WNW 30mi, 48km
Updated: Sun, 21-Sep-2014 5:45am EDT
Mist, Clear
Mist, Clear
 Wind from calm
Wind: Calm
Temperature: 57°F , 14°C
Dew Point: 55°F , 13°C
Humidity: 94%
Barometer: 29.92 inHg , 1013.2 hPa
Summary: Mist
Clouds: Clear
Visibility: 4 miles , 6 km
2014/09/21 09:45 KDMW 210945Z AUTO 00000KT 4SM BR CLR 14/13 A2992 RMK AO2
 
KNAK - Annapolis/Naval, Maryland, USA
Distance from station: S 30mi, 48km
Updated: Sun, 21-Sep-2014 6:02am EDT
Mist, Mostly cloudy
Mist, Mostly cloudy
 Wind from NW
Wind: NW 3 mph , 6 km/h
Temperature: 64°F , 18°C
Dew Point: 63°F , 17°C
Humidity: 94%
Barometer: 29.88 inHg , 1011.9 hPa
Summary: Mist
Clouds: Mostly cloudy
Visibility: 6 miles , 10 km
Cloud details: Mostly cloudy 1100 ft
2014/09/21 10:02 KNAK 211002Z AUTO 31003KT 6SM BR BKN011 18/17 A2988 RMK AO2 T01830167 $
KW29 - Stevensville, Maryland, USA
Distance from station: SSE 31mi, 50km
Updated: Sun, 21-Sep-2014 5:44am EDT

 Wind from SE
Wind: SE 3 mph , 6 km/h
Temperature: 63°F , 17°C
Dew Point: 63°F , 17°C
Humidity: 100%
Barometer: 29.90 inHg , 1012.5 hPa
Visibility: 10 miles , 16 km
2014/09/21 09:44 KW29 210944Z AUTO 13003KT 10SM 17/17 A2990 RMK AO1
 
KCGS - College Park, Maryland, USA
Distance from station: SW 38mi, 61km
Updated: Sun, 21-Sep-2014 5:40am EDT
Clear
Clear
 Wind from calm
Wind: Calm
Temperature: 57°F , 14°C
Dew Point: 57°F , 14°C
Humidity: 100%
Barometer: 29.90 inHg , 1012.5 hPa
Clouds: Clear
Visibility: 7 miles , 11 km
2014/09/21 09:40 KCGS 210940Z AUTO 00000KT 7SM CLR 14/14 A2990 RMK AO1
KGAI - Gaithersburg, Maryland, USA
Distance from station: WSW 40mi, 65km
Updated: Sun, 21-Sep-2014 5:55am EDT
Clear
Clear
 Wind from calm
Wind: Calm
Temperature: 55°F , 13°C
Dew Point: 54°F , 12°C
Humidity: 94%
Barometer: 29.94 inHg , 1013.9 hPa
Clouds: Clear
Visibility: 4 miles , 6 km
2014/09/21 09:55 KGAI 210955Z 00000KT 4SM CLR 13/12 A2994 RMK AO1
 
KTHV - York, Pennsylvania, USA
Distance from station: NNW 40mi, 65km
Updated: Sun, 21-Sep-2014 5:53am EDT
Mist, Clear
Mist, Clear
 Wind from calm
Wind: Calm
Temperature: 55°F , 13°C
Dew Point: 54°F , 12°C
Humidity: 94%
Barometer: 29.92 inHg , 1013.2 hPa
Summary: Mist
Clouds: Clear
Visibility: 3 miles , 5 km
2014/09/21 09:53 KTHV 210953Z AUTO 00000KT 3SM BR CLR 13/12 A2992 RMK AO2 SLP133 T01280122
KFDK - Frederick, Maryland, USA
Distance from station: W 47mi, 75km
Updated: Sun, 21-Sep-2014 5:40am EDT
Mist, Clear
Mist, Clear
 Wind from calm
Wind: Calm
Temperature: 55°F , 13°C
Dew Point: 55°F , 13°C
Humidity: 100%
Barometer: 29.94 inHg , 1013.9 hPa
Summary: Mist
Clouds: Clear
Visibility: 4 miles , 6 km
2014/09/21 09:40 KFDK 210940Z AUTO 00000KT 4SM BR CLR 13/13 A2994 RMK AO2 LTG DSNT W
 
KESN - Easton/Newnam, Maryland, USA
Distance from station: SSE 48mi, 78km
Updated: Sun, 21-Sep-2014 5:56am EDT
Mist, Clear
Mist, Clear
 Wind from calm
Wind: Calm
Temperature: 63°F , 17°C
Dew Point: 63°F , 17°C
Humidity: 100%
Barometer: 29.93 inHg , 1013.5 hPa
Summary: Mist
Clouds: Clear
Visibility: 5 miles , 8 km
2014/09/21 09:56 KESN 210956Z AUTO 00000KT 5SM BR CLR 17/17 A2993 RMK AO2 T01710171
KDCA - Washington/Natl, Washington D.c., USA
Distance from station: SW 49mi, 79km
Updated: Sun, 21-Sep-2014 5:52am EDT
Few Clouds
Few Clouds
 Wind from NNW
Wind: NNW 6 mph , 9 km/h
Temperature: 64°F , 18°C
Dew Point: 59°F , 15°C
Humidity: 83%
Barometer: 29.91 inHg , 1012.9 hPa
Clouds: Few Clouds
Visibility: 10 miles , 16 km
Cloud details: Few Clouds 25000 ft
2014/09/21 09:52 KDCA 210952Z 34005KT 10SM FEW250 18/15 A2991 RMK AO2 SLP128 T01780150
 
KLNS - Lancaster, Pennsylvania, USA
Distance from station: N 49mi, 79km
Updated: Sun, 21-Sep-2014 5:53am EDT
Fog, Overcast
Fog, Overcast
 Wind from calm
Wind: Calm
Temperature: 59°F , 15°C
Dew Point: 59°F , 15°C
Humidity: 100%
Barometer: 29.92 inHg , 1013.2 hPa
Summary: Fog
Clouds: Overcast
Visibility: 1/4 mile , 2 km
Cloud details: Overcast 200 ft
2014/09/21 09:53 KLNS 210953Z 00000KT 1/4SM FG VV002 15/15 A2992 RMK AO2 SLP129 T01500150
KILG - Wilmington, Delaware, USA
Distance from station: ENE 50mi, 81km
Updated: Sun, 21-Sep-2014 5:51am EDT
Overcast
Overcast
 Wind from NNW
Wind: NNW 3 mph , 6 km/h
Temperature: 63°F , 17°C
Dew Point: 61°F , 16°C
Humidity: 94%
Barometer: 29.91 inHg , 1012.9 hPa
Clouds: Overcast
Visibility: 10 miles , 16 km
Cloud details: Mostly cloudy 400 ft
Overcast 1300 ft
2014/09/21 09:51 KILG 210951Z 34003KT 10SM BKN004 OVC013 17/16 A2991 RMK AO2 SLP129 T01720161